sensor_id;sensor_type;location;lat;lon;timestamp;P1;durP1;ratioP1;P2;durP2;ratioP2
6053;SDS011;3055;50.886;14.814;2023-12-14T00:01:44;22.87;;;17.30;;
6053;SDS011;3055;50.886;14.814;2023-12-14T00:04:13;25.13;;;16.83;;
6053;SDS011;3055;50.886;14.814;2023-12-14T00:06:40;23.80;;;15.87;;
6053;SDS011;3055;50.886;14.814;2023-12-14T00:09:09;21.70;;;16.27;;
6053;SDS011;3055;50.886;14.814;2023-12-14T00:11:37;19.90;;;16.33;;
6053;SDS011;3055;50.886;14.814;2023-12-14T00:14:05;19.50;;;14.97;;
6053;SDS011;3055;50.886;14.814;2023-12-14T00:16:32;22.53;;;16.73;;
6053;SDS011;3055;50.886;14.814;2023-12-14T00:18:59;20.37;;;16.00;;
6053;SDS011;3055;50.886;14.814;2023-12-14T00:21:27;22.13;;;18.40;;
6053;SDS011;3055;50.886;14.814;2023-12-14T00:23:54;30.70;;;21.43;;
6053;SDS011;3055;50.886;14.814;2023-12-14T00:26:23;25.97;;;18.00;;
6053;SDS011;3055;50.886;14.814;2023-12-14T00:28:50;24.67;;;18.10;;
6053;SDS011;3055;50.886;14.814;2023-12-14T00:31:17;24.67;;;18.83;;
6053;SDS011;3055;50.886;14.814;2023-12-14T00:33:44;28.93;;;20.03;;
6053;SDS011;3055;50.886;14.814;2023-12-14T00:36:17;25.53;;;19.13;;
6053;SDS011;3055;50.886;14.814;2023-12-14T00:38:44;27.47;;;20.37;;
6053;SDS011;3055;50.886;14.814;2023-12-14T00:41:11;28.23;;;18.27;;
6053;SDS011;3055;50.886;14.814;2023-12-14T00:43:40;29.00;;;19.70;;
6053;SDS011;3055;50.886;14.814;2023-12-14T00:46:07;29.47;;;19.40;;
6053;SDS011;3055;50.886;14.814;2023-12-14T00:48:34;26.47;;;20.03;;
6053;SDS011;3055;50.886;14.814;2023-12-14T00:51:01;24.37;;;17.63;;
6053;SDS011;3055;50.886;14.814;2023-12-14T00:53:28;27.73;;;18.17;;
6053;SDS011;3055;50.886;14.814;2023-12-14T00:55:55;24.53;;;17.53;;
6053;SDS011;3055;50.886;14.814;2023-12-14T00:58:22;23.13;;;16.97;;
6053;SDS011;3055;50.886;14.814;2023-12-14T01:00:51;25.00;;;18.23;;
6053;SDS011;3055;50.886;14.814;2023-12-14T01:03:19;26.43;;;18.00;;
6053;SDS011;3055;50.886;14.814;2023-12-14T01:05:46;22.50;;;17.57;;
6053;SDS011;3055;50.886;14.814;2023-12-14T01:08:13;25.93;;;18.03;;
6053;SDS011;3055;50.886;14.814;2023-12-14T01:10:40;22.73;;;16.13;;
6053;SDS011;3055;50.886;14.814;2023-12-14T01:13:07;21.40;;;16.33;;
6053;SDS011;3055;50.886;14.814;2023-12-14T01:15:34;23.20;;;17.53;;
6053;SDS011;3055;50.886;14.814;2023-12-14T01:18:03;25.57;;;17.03;;
6053;SDS011;3055;50.886;14.814;2023-12-14T01:20:30;20.07;;;16.07;;
6053;SDS011;3055;50.886;14.814;2023-12-14T01:22:57;21.90;;;14.53;;
6053;SDS011;3055;50.886;14.814;2023-12-14T01:25:24;20.13;;;15.10;;
6053;SDS011;3055;50.886;14.814;2023-12-14T01:27:51;18.73;;;15.20;;
6053;SDS011;3055;50.886;14.814;2023-12-14T01:30:18;20.50;;;15.37;;
6053;SDS011;3055;50.886;14.814;2023-12-14T01:32:45;21.90;;;14.53;;
6053;SDS011;3055;50.886;14.814;2023-12-14T01:35:14;20.63;;;14.10;;
6053;SDS011;3055;50.886;14.814;2023-12-14T01:37:41;18.20;;;13.33;;
6053;SDS011;3055;50.886;14.814;2023-12-14T01:40:08;16.83;;;13.67;;
6053;SDS011;3055;50.886;14.814;2023-12-14T01:42:36;17.80;;;13.03;;
6053;SDS011;3055;50.886;14.814;2023-12-14T01:45:03;17.83;;;13.90;;
6053;SDS011;3055;50.886;14.814;2023-12-14T01:47:31;20.97;;;14.77;;
6053;SDS011;3055;50.886;14.814;2023-12-14T01:49:58;17.50;;;12.93;;
6053;SDS011;3055;50.886;14.814;2023-12-14T01:52:26;14.27;;;11.90;;
6053;SDS011;3055;50.886;14.814;2023-12-14T01:54:53;18.67;;;12.80;;
6053;SDS011;3055;50.886;14.814;2023-12-14T01:57:24;15.57;;;12.37;;
6053;SDS011;3055;50.886;14.814;2023-12-14T01:59:51;16.93;;;12.53;;
6053;SDS011;3055;50.886;14.814;2023-12-14T02:02:18;15.57;;;12.63;;
6053;SDS011;3055;50.886;14.814;2023-12-14T02:04:45;17.57;;;13.27;;
6053;SDS011;3055;50.886;14.814;2023-12-14T02:07:12;16.17;;;12.40;;
6053;SDS011;3055;50.886;14.814;2023-12-14T02:09:40;15.67;;;12.47;;
6053;SDS011;3055;50.886;14.814;2023-12-14T02:12:07;17.70;;;13.37;;
6053;SDS011;3055;50.886;14.814;2023-12-14T02:14:34;16.10;;;13.27;;
6053;SDS011;3055;50.886;14.814;2023-12-14T02:17:01;17.03;;;13.77;;
6053;SDS011;3055;50.886;14.814;2023-12-14T02:19:29;14.30;;;10.93;;
6053;SDS011;3055;50.886;14.814;2023-12-14T02:21:56;13.83;;;10.90;;
6053;SDS011;3055;50.886;14.814;2023-12-14T02:24:24;12.27;;;9.70;;
6053;SDS011;3055;50.886;14.814;2023-12-14T02:26:51;13.47;;;9.77;;
6053;SDS011;3055;50.886;14.814;2023-12-14T02:29:18;12.40;;;9.53;;
6053;SDS011;3055;50.886;14.814;2023-12-14T02:31:45;12.80;;;9.47;;
6053;SDS011;3055;50.886;14.814;2023-12-14T02:34:13;12.17;;;9.50;;
6053;SDS011;3055;50.886;14.814;2023-12-14T02:36:40;10.23;;;8.83;;
6053;SDS011;3055;50.886;14.814;2023-12-14T02:39:07;11.33;;;8.47;;
6053;SDS011;3055;50.886;14.814;2023-12-14T02:41:36;9.40;;;8.13;;
6053;SDS011;3055;50.886;14.814;2023-12-14T02:44:03;11.00;;;8.70;;
6053;SDS011;3055;50.886;14.814;2023-12-14T02:46:30;9.63;;;8.63;;
6053;SDS011;3055;50.886;14.814;2023-12-14T02:48:57;11.60;;;8.80;;
6053;SDS011;3055;50.886;14.814;2023-12-14T02:51:24;10.90;;;9.07;;
6053;SDS011;3055;50.886;14.814;2023-12-14T02:53:51;11.77;;;8.63;;
6053;SDS011;3055;50.886;14.814;2023-12-14T02:56:18;10.50;;;8.53;;
6053;SDS011;3055;50.886;14.814;2023-12-14T02:58:46;11.77;;;8.43;;
6053;SDS011;3055;50.886;14.814;2023-12-14T03:01:18;10.27;;;8.50;;
6053;SDS011;3055;50.886;14.814;2023-12-14T03:03:45;11.27;;;8.27;;
6053;SDS011;3055;50.886;14.814;2023-12-14T03:06:12;11.73;;;8.93;;
6053;SDS011;3055;50.886;14.814;2023-12-14T03:08:39;11.13;;;8.97;;
6053;SDS011;3055;50.886;14.814;2023-12-14T03:11:06;10.63;;;8.80;;
6053;SDS011;3055;50.886;14.814;2023-12-14T03:13:33;11.57;;;9.33;;
6053;SDS011;3055;50.886;14.814;2023-12-14T03:16:02;12.07;;;9.00;;
6053;SDS011;3055;50.886;14.814;2023-12-14T03:18:32;12.50;;;9.67;;
6053;SDS011;3055;50.886;14.814;2023-12-14T03:20:59;14.57;;;10.70;;
6053;SDS011;3055;50.886;14.814;2023-12-14T03:23:26;11.97;;;9.70;;
6053;SDS011;3055;50.886;14.814;2023-12-14T03:25:53;12.63;;;9.37;;
6053;SDS011;3055;50.886;14.814;2023-12-14T03:28:20;14.30;;;9.93;;
6053;SDS011;3055;50.886;14.814;2023-12-14T03:30:47;11.77;;;9.67;;
6053;SDS011;3055;50.886;14.814;2023-12-14T03:33:15;11.07;;;9.03;;
6053;SDS011;3055;50.886;14.814;2023-12-14T03:35:42;11.27;;;9.30;;
6053;SDS011;3055;50.886;14.814;2023-12-14T03:38:13;11.67;;;9.37;;
6053;SDS011;3055;50.886;14.814;2023-12-14T03:40:40;11.43;;;9.90;;
6053;SDS011;3055;50.886;14.814;2023-12-14T03:43:07;12.37;;;9.87;;
6053;SDS011;3055;50.886;14.814;2023-12-14T03:45:34;11.63;;;9.17;;
6053;SDS011;3055;50.886;14.814;2023-12-14T03:48:01;11.10;;;9.90;;
6053;SDS011;3055;50.886;14.814;2023-12-14T03:50:29;12.17;;;9.40;;
6053;SDS011;3055;50.886;14.814;2023-12-14T03:52:57;11.57;;;9.23;;
6053;SDS011;3055;50.886;14.814;2023-12-14T03:55:24;10.43;;;9.33;;
6053;SDS011;3055;50.886;14.814;2023-12-14T03:57:51;12.63;;;9.27;;
6053;SDS011;3055;50.886;14.814;2023-12-14T04:00:18;12.20;;;9.33;;
6053;SDS011;3055;50.886;14.814;2023-12-14T04:02:45;11.03;;;8.87;;
6053;SDS011;3055;50.886;14.814;2023-12-14T04:05:12;9.53;;;8.33;;
6053;SDS011;3055;50.886;14.814;2023-12-14T04:07:40;9.93;;;7.90;;
6053;SDS011;3055;50.886;14.814;2023-12-14T04:10:07;8.97;;;7.87;;
6053;SDS011;3055;50.886;14.814;2023-12-14T04:12:35;10.97;;;9.07;;
6053;SDS011;3055;50.886;14.814;2023-12-14T04:15:02;13.47;;;9.40;;
6053;SDS011;3055;50.886;14.814;2023-12-14T04:17:30;11.30;;;8.97;;
6053;SDS011;3055;50.886;14.814;2023-12-14T04:19:57;12.37;;;9.60;;
6053;SDS011;3055;50.886;14.814;2023-12-14T04:22:24;12.73;;;9.20;;
6053;SDS011;3055;50.886;14.814;2023-12-14T04:24:53;11.37;;;8.87;;
6053;SDS011;3055;50.886;14.814;2023-12-14T04:27:20;12.07;;;9.17;;
6053;SDS011;3055;50.886;14.814;2023-12-14T04:29:52;13.60;;;9.17;;
6053;SDS011;3055;50.886;14.814;2023-12-14T04:32:19;13.57;;;9.37;;
6053;SDS011;3055;50.886;14.814;2023-12-14T04:34:46;14.27;;;9.37;;
6053;SDS011;3055;50.886;14.814;2023-12-14T04:37:13;15.67;;;9.83;;
6053;SDS011;3055;50.886;14.814;2023-12-14T04:39:40;13.70;;;9.23;;
6053;SDS011;3055;50.886;14.814;2023-12-14T04:42:09;15.00;;;10.23;;
6053;SDS011;3055;50.886;14.814;2023-12-14T04:44:35;15.27;;;9.43;;
6053;SDS011;3055;50.886;14.814;2023-12-14T04:47:03;12.57;;;9.23;;
6053;SDS011;3055;50.886;14.814;2023-12-14T04:49:30;13.50;;;8.90;;
6053;SDS011;3055;50.886;14.814;2023-12-14T04:51:57;11.43;;;9.07;;
6053;SDS011;3055;50.886;14.814;2023-12-14T04:54:24;14.97;;;9.83;;
6053;SDS011;3055;50.886;14.814;2023-12-14T04:56:51;12.93;;;9.80;;
6053;SDS011;3055;50.886;14.814;2023-12-14T04:59:19;11.30;;;8.93;;
6053;SDS011;3055;50.886;14.814;2023-12-14T05:01:46;13.00;;;9.50;;
6053;SDS011;3055;50.886;14.814;2023-12-14T05:04:13;12.07;;;9.97;;
6053;SDS011;3055;50.886;14.814;2023-12-14T05:06:41;12.73;;;8.87;;
6053;SDS011;3055;50.886;14.814;2023-12-14T05:09:08;9.43;;;7.50;;
6053;SDS011;3055;50.886;14.814;2023-12-14T05:11:36;10.33;;;7.10;;
6053;SDS011;3055;50.886;14.814;2023-12-14T05:14:05;6.70;;;5.70;;
6053;SDS011;3055;50.886;14.814;2023-12-14T05:16:33;7.33;;;6.10;;
6053;SDS011;3055;50.886;14.814;2023-12-14T05:19:00;8.33;;;6.60;;
6053;SDS011;3055;50.886;14.814;2023-12-14T05:21:27;7.73;;;6.63;;
6053;SDS011;3055;50.886;14.814;2023-12-14T05:23:54;10.07;;;7.57;;
6053;SDS011;3055;50.886;14.814;2023-12-14T05:26:21;12.20;;;8.30;;
6053;SDS011;3055;50.886;14.814;2023-12-14T05:28:49;11.47;;;10.07;;
6053;SDS011;3055;50.886;14.814;2023-12-14T05:31:16;11.27;;;8.80;;
6053;SDS011;3055;50.886;14.814;2023-12-14T05:33:44;13.20;;;9.00;;
6053;SDS011;3055;50.886;14.814;2023-12-14T05:36:11;11.20;;;8.20;;
6053;SDS011;3055;50.886;14.814;2023-12-14T05:38:38;8.70;;;7.17;;
6053;SDS011;3055;50.886;14.814;2023-12-14T05:41:06;10.30;;;7.57;;
6053;SDS011;3055;50.886;14.814;2023-12-14T05:43:35;10.07;;;7.60;;
6053;SDS011;3055;50.886;14.814;2023-12-14T05:46:02;9.40;;;7.73;;
6053;SDS011;3055;50.886;14.814;2023-12-14T05:48:29;9.67;;;8.33;;
6053;SDS011;3055;50.886;14.814;2023-12-14T05:50:59;11.87;;;9.10;;
6053;SDS011;3055;50.886;14.814;2023-12-14T05:53:26;11.17;;;8.63;;
6053;SDS011;3055;50.886;14.814;2023-12-14T05:55:54;12.47;;;9.97;;
6053;SDS011;3055;50.886;14.814;2023-12-14T05:58:21;15.73;;;10.87;;
6053;SDS011;3055;50.886;14.814;2023-12-14T06:00:48;14.07;;;11.47;;
6053;SDS011;3055;50.886;14.814;2023-12-14T06:03:15;14.60;;;10.70;;
6053;SDS011;3055;50.886;14.814;2023-12-14T06:05:42;12.33;;;10.07;;
6053;SDS011;3055;50.886;14.814;2023-12-14T06:08:11;12.13;;;9.23;;
6053;SDS011;3055;50.886;14.814;2023-12-14T06:10:38;11.30;;;9.90;;
6053;SDS011;3055;50.886;14.814;2023-12-14T06:13:05;9.37;;;8.23;;
6053;SDS011;3055;50.886;14.814;2023-12-14T06:15:32;12.07;;;8.77;;
6053;SDS011;3055;50.886;14.814;2023-12-14T06:17:59;9.90;;;8.23;;
6053;SDS011;3055;50.886;14.814;2023-12-14T06:20:26;13.63;;;9.20;;
6053;SDS011;3055;50.886;14.814;2023-12-14T06:22:53;12.53;;;8.80;;
6053;SDS011;3055;50.886;14.814;2023-12-14T06:25:21;13.00;;;8.37;;
6053;SDS011;3055;50.886;14.814;2023-12-14T06:27:48;9.73;;;8.50;;
6053;SDS011;3055;50.886;14.814;2023-12-14T06:30:15;9.40;;;8.23;;
6053;SDS011;3055;50.886;14.814;2023-12-14T06:32:43;11.87;;;8.20;;
6053;SDS011;3055;50.886;14.814;2023-12-14T06:35:10;12.73;;;10.20;;
6053;SDS011;3055;50.886;14.814;2023-12-14T06:37:37;12.97;;;9.70;;
6053;SDS011;3055;50.886;14.814;2023-12-14T06:40:05;11.13;;;9.87;;
6053;SDS011;3055;50.886;14.814;2023-12-14T06:42:34;13.83;;;10.90;;
6053;SDS011;3055;50.886;14.814;2023-12-14T06:45:02;12.60;;;9.93;;
6053;SDS011;3055;50.886;14.814;2023-12-14T06:47:29;14.30;;;11.60;;
6053;SDS011;3055;50.886;14.814;2023-12-14T06:49:56;17.33;;;12.53;;
6053;SDS011;3055;50.886;14.814;2023-12-14T06:52:23;15.17;;;11.87;;
6053;SDS011;3055;50.886;14.814;2023-12-14T06:54:50;16.07;;;11.60;;
6053;SDS011;3055;50.886;14.814;2023-12-14T06:57:17;16.10;;;12.50;;
6053;SDS011;3055;50.886;14.814;2023-12-14T06:59:46;15.90;;;11.70;;
6053;SDS011;3055;50.886;14.814;2023-12-14T07:02:13;19.13;;;13.40;;
6053;SDS011;3055;50.886;14.814;2023-12-14T07:04:40;16.37;;;13.10;;
6053;SDS011;3055;50.886;14.814;2023-12-14T07:07:06;15.33;;;12.57;;
6053;SDS011;3055;50.886;14.814;2023-12-14T07:09:34;19.70;;;13.00;;
6053;SDS011;3055;50.886;14.814;2023-12-14T07:12:01;15.03;;;12.00;;
6053;SDS011;3055;50.886;14.814;2023-12-14T07:14:29;16.13;;;12.03;;
6053;SDS011;3055;50.886;14.814;2023-12-14T07:16:57;16.20;;;11.73;;
6053;SDS011;3055;50.886;14.814;2023-12-14T07:19:24;15.83;;;12.23;;
6053;SDS011;3055;50.886;14.814;2023-12-14T07:21:51;22.47;;;14.50;;
6053;SDS011;3055;50.886;14.814;2023-12-14T07:24:18;19.97;;;14.70;;
6053;SDS011;3055;50.886;14.814;2023-12-14T07:26:45;18.70;;;13.80;;
6053;SDS011;3055;50.886;14.814;2023-12-14T07:29:12;18.63;;;12.53;;
6053;SDS011;3055;50.886;14.814;2023-12-14T07:31:39;17.10;;;12.90;;
6053;SDS011;3055;50.886;14.814;2023-12-14T07:34:07;18.47;;;13.47;;
6053;SDS011;3055;50.886;14.814;2023-12-14T07:36:38;19.07;;;13.10;;
6053;SDS011;3055;50.886;14.814;2023-12-14T07:39:05;16.93;;;13.63;;
6053;SDS011;3055;50.886;14.814;2023-12-14T07:41:34;15.40;;;11.77;;
6053;SDS011;3055;50.886;14.814;2023-12-14T07:44:01;16.37;;;12.57;;
6053;SDS011;3055;50.886;14.814;2023-12-14T07:46:29;18.80;;;13.60;;
6053;SDS011;3055;50.886;14.814;2023-12-14T07:48:58;17.13;;;12.93;;
6053;SDS011;3055;50.886;14.814;2023-12-14T07:51:26;18.17;;;12.90;;
6053;SDS011;3055;50.886;14.814;2023-12-14T07:53:53;18.10;;;13.37;;
6053;SDS011;3055;50.886;14.814;2023-12-14T07:56:20;18.27;;;13.53;;
6053;SDS011;3055;50.886;14.814;2023-12-14T07:58:50;21.30;;;15.70;;
6053;SDS011;3055;50.886;14.814;2023-12-14T08:01:17;16.77;;;14.07;;
6053;SDS011;3055;50.886;14.814;2023-12-14T08:03:45;20.20;;;13.63;;
6053;SDS011;3055;50.886;14.814;2023-12-14T08:06:12;22.50;;;15.70;;
6053;SDS011;3055;50.886;14.814;2023-12-14T08:08:41;22.30;;;15.77;;
6053;SDS011;3055;50.886;14.814;2023-12-14T08:11:08;18.27;;;14.50;;
6053;SDS011;3055;50.886;14.814;2023-12-14T08:13:35;21.90;;;15.90;;
6053;SDS011;3055;50.886;14.814;2023-12-14T08:16:03;25.50;;;15.67;;
6053;SDS011;3055;50.886;14.814;2023-12-14T08:18:30;26.90;;;18.23;;
6053;SDS011;3055;50.886;14.814;2023-12-14T08:20:57;25.53;;;16.70;;
6053;SDS011;3055;50.886;14.814;2023-12-14T08:23:24;33.40;;;19.20;;
6053;SDS011;3055;50.886;14.814;2023-12-14T08:25:54;32.87;;;19.17;;
6053;SDS011;3055;50.886;14.814;2023-12-14T08:28:22;33.30;;;20.10;;
6053;SDS011;3055;50.886;14.814;2023-12-14T08:30:49;37.80;;;24.67;;
6053;SDS011;3055;50.886;14.814;2023-12-14T08:33:16;39.53;;;23.83;;
6053;SDS011;3055;50.886;14.814;2023-12-14T08:35:43;42.60;;;23.10;;
6053;SDS011;3055;50.886;14.814;2023-12-14T08:38:10;39.23;;;20.93;;
6053;SDS011;3055;50.886;14.814;2023-12-14T08:40:39;41.83;;;21.80;;
6053;SDS011;3055;50.886;14.814;2023-12-14T08:43:07;45.70;;;22.40;;
6053;SDS011;3055;50.886;14.814;2023-12-14T08:45:34;39.93;;;20.80;;
6053;SDS011;3055;50.886;14.814;2023-12-14T08:48:02;45.33;;;21.13;;
6053;SDS011;3055;50.886;14.814;2023-12-14T08:50:29;35.53;;;18.83;;
6053;SDS011;3055;50.886;14.814;2023-12-14T08:52:56;38.63;;;20.27;;
6053;SDS011;3055;50.886;14.814;2023-12-14T08:55:24;31.27;;;16.77;;
6053;SDS011;3055;50.886;14.814;2023-12-14T08:57:51;29.80;;;16.37;;
6053;SDS011;3055;50.886;14.814;2023-12-14T09:00:20;24.27;;;14.23;;
6053;SDS011;3055;50.886;14.814;2023-12-14T09:02:48;26.70;;;13.73;;
6053;SDS011;3055;50.886;14.814;2023-12-14T09:05:15;24.87;;;13.13;;
6053;SDS011;3055;50.886;14.814;2023-12-14T09:07:45;20.60;;;12.13;;
6053;SDS011;3055;50.886;14.814;2023-12-14T09:10:12;18.23;;;11.33;;
6053;SDS011;3055;50.886;14.814;2023-12-14T09:12:39;15.53;;;10.63;;
6053;SDS011;3055;50.886;14.814;2023-12-14T09:15:06;16.47;;;10.93;;
6053;SDS011;3055;50.886;14.814;2023-12-14T09:17:35;18.10;;;11.57;;
6053;SDS011;3055;50.886;14.814;2023-12-14T09:20:02;20.70;;;12.20;;
6053;SDS011;3055;50.886;14.814;2023-12-14T09:22:30;17.50;;;10.83;;
6053;SDS011;3055;50.886;14.814;2023-12-14T09:24:57;14.07;;;9.50;;
6053;SDS011;3055;50.886;14.814;2023-12-14T09:27:24;10.83;;;8.03;;
6053;SDS011;3055;50.886;14.814;2023-12-14T09:29:52;9.93;;;7.27;;
6053;SDS011;3055;50.886;14.814;2023-12-14T09:32:19;10.23;;;6.67;;
6053;SDS011;3055;50.886;14.814;2023-12-14T09:34:47;8.90;;;6.83;;
6053;SDS011;3055;50.886;14.814;2023-12-14T09:37:14;9.43;;;7.30;;
6053;SDS011;3055;50.886;14.814;2023-12-14T09:39:41;11.17;;;6.87;;
6053;SDS011;3055;50.886;14.814;2023-12-14T09:42:08;10.03;;;7.37;;
6053;SDS011;3055;50.886;14.814;2023-12-14T09:44:35;8.33;;;6.63;;
6053;SDS011;3055;50.886;14.814;2023-12-14T09:47:04;8.70;;;6.67;;
6053;SDS011;3055;50.886;14.814;2023-12-14T09:49:32;10.37;;;7.40;;
6053;SDS011;3055;50.886;14.814;2023-12-14T09:52:00;9.33;;;7.50;;
6053;SDS011;3055;50.886;14.814;2023-12-14T09:54:27;8.50;;;7.60;;
6053;SDS011;3055;50.886;14.814;2023-12-14T09:56:54;10.27;;;7.97;;
6053;SDS011;3055;50.886;14.814;2023-12-14T09:59:21;9.13;;;7.20;;
6053;SDS011;3055;50.886;14.814;2023-12-14T10:01:48;9.50;;;7.83;;
6053;SDS011;3055;50.886;14.814;2023-12-14T10:04:16;7.63;;;6.83;;
6053;SDS011;3055;50.886;14.814;2023-12-14T10:06:45;8.43;;;7.37;;
6053;SDS011;3055;50.886;14.814;2023-12-14T10:09:15;9.57;;;7.37;;
6053;SDS011;3055;50.886;14.814;2023-12-14T10:11:49;9.03;;;7.93;;
6053;SDS011;3055;50.886;14.814;2023-12-14T10:14:29;8.80;;;7.90;;
6053;SDS011;3055;50.886;14.814;2023-12-14T10:16:56;11.00;;;8.07;;
6053;SDS011;3055;50.886;14.814;2023-12-14T10:19:23;11.53;;;8.20;;
6053;SDS011;3055;50.886;14.814;2023-12-14T10:21:50;9.70;;;7.57;;
6053;SDS011;3055;50.886;14.814;2023-12-14T10:24:19;10.73;;;8.03;;
6053;SDS011;3055;50.886;14.814;2023-12-14T10:26:47;10.13;;;7.93;;
6053;SDS011;3055;50.886;14.814;2023-12-14T10:29:16;10.13;;;8.20;;
6053;SDS011;3055;50.886;14.814;2023-12-14T10:31:43;10.03;;;8.40;;
6053;SDS011;3055;50.886;14.814;2023-12-14T10:34:10;8.50;;;7.60;;
6053;SDS011;3055;50.886;14.814;2023-12-14T10:36:37;11.07;;;8.77;;
6053;SDS011;3055;50.886;14.814;2023-12-14T10:39:04;9.77;;;7.43;;
6053;SDS011;3055;50.886;14.814;2023-12-14T10:41:34;8.13;;;7.23;;
6053;SDS011;3055;50.886;14.814;2023-12-14T10:44:03;10.57;;;7.50;;
6053;SDS011;3055;50.886;14.814;2023-12-14T10:46:31;8.23;;;6.97;;
6053;SDS011;3055;50.886;14.814;2023-12-14T10:48:59;9.73;;;7.50;;
6053;SDS011;3055;50.886;14.814;2023-12-14T10:51:28;8.60;;;7.30;;
6053;SDS011;3055;50.886;14.814;2023-12-14T10:53:55;9.73;;;7.57;;
6053;SDS011;3055;50.886;14.814;2023-12-14T10:56:23;9.17;;;6.97;;
6053;SDS011;3055;50.886;14.814;2023-12-14T10:58:52;10.43;;;7.70;;
6053;SDS011;3055;50.886;14.814;2023-12-14T11:01:22;9.07;;;7.27;;
6053;SDS011;3055;50.886;14.814;2023-12-14T11:03:50;9.60;;;7.97;;
6053;SDS011;3055;50.886;14.814;2023-12-14T11:06:26;9.93;;;8.17;;
6053;SDS011;3055;50.886;14.814;2023-12-14T11:08:56;9.70;;;8.23;;
6053;SDS011;3055;50.886;14.814;2023-12-14T11:11:28;8.77;;;7.50;;
6053;SDS011;3055;50.886;14.814;2023-12-14T11:13:56;9.63;;;7.37;;
6053;SDS011;3055;50.886;14.814;2023-12-14T11:16:24;10.33;;;7.20;;
6053;SDS011;3055;50.886;14.814;2023-12-14T11:22:11;8.03;;;6.77;;
6053;SDS011;3055;50.886;14.814;2023-12-14T11:24:42;10.90;;;7.17;;
6053;SDS011;3055;50.886;14.814;2023-12-14T11:27:16;12.00;;;8.40;;
6053;SDS011;3055;50.886;14.814;2023-12-14T11:29:49;11.93;;;9.67;;
6053;SDS011;3055;50.886;14.814;2023-12-14T11:32:16;12.70;;;9.73;;
6053;SDS011;3055;50.886;14.814;2023-12-14T11:34:45;12.70;;;10.60;;
6053;SDS011;3055;50.886;14.814;2023-12-14T11:37:12;12.43;;;8.67;;
6053;SDS011;3055;50.886;14.814;2023-12-14T11:39:40;9.67;;;8.33;;
6053;SDS011;3055;50.886;14.814;2023-12-14T11:42:08;12.33;;;9.60;;
6053;SDS011;3055;50.886;14.814;2023-12-14T11:44:36;10.53;;;8.90;;
6053;SDS011;3055;50.886;14.814;2023-12-14T11:47:05;12.13;;;9.77;;
6053;SDS011;3055;50.886;14.814;2023-12-14T11:49:32;11.40;;;8.40;;
6053;SDS011;3055;50.886;14.814;2023-12-14T11:52:01;6.87;;;6.00;;
6053;SDS011;3055;50.886;14.814;2023-12-14T11:54:29;6.10;;;5.50;;
6053;SDS011;3055;50.886;14.814;2023-12-14T11:56:56;6.77;;;5.10;;
6053;SDS011;3055;50.886;14.814;2023-12-14T11:59:23;8.43;;;5.20;;
6053;SDS011;3055;50.886;14.814;2023-12-14T12:01:55;6.87;;;5.50;;
6053;SDS011;3055;50.886;14.814;2023-12-14T12:04:24;6.03;;;5.43;;
6053;SDS011;3055;50.886;14.814;2023-12-14T12:06:58;6.90;;;4.73;;
6053;SDS011;3055;50.886;14.814;2023-12-14T12:09:36;5.77;;;4.83;;
6053;SDS011;3055;50.886;14.814;2023-12-14T12:12:07;6.23;;;4.87;;
6053;SDS011;3055;50.886;14.814;2023-12-14T12:14:35;4.77;;;4.27;;
6053;SDS011;3055;50.886;14.814;2023-12-14T12:17:03;6.83;;;4.50;;
6053;SDS011;3055;50.886;14.814;2023-12-14T12:19:33;5.00;;;4.33;;
6053;SDS011;3055;50.886;14.814;2023-12-14T12:22:00;5.00;;;4.00;;
6053;SDS011;3055;50.886;14.814;2023-12-14T12:24:28;4.97;;;4.20;;
6053;SDS011;3055;50.886;14.814;2023-12-14T12:26:55;5.27;;;4.77;;
6053;SDS011;3055;50.886;14.814;2023-12-14T12:29:22;5.07;;;4.57;;
6053;SDS011;3055;50.886;14.814;2023-12-14T12:31:49;6.33;;;4.73;;
6053;SDS011;3055;50.886;14.814;2023-12-14T12:34:16;5.97;;;5.27;;
6053;SDS011;3055;50.886;14.814;2023-12-14T12:36:45;6.27;;;4.83;;
6053;SDS011;3055;50.886;14.814;2023-12-14T12:39:12;5.80;;;5.07;;
6053;SDS011;3055;50.886;14.814;2023-12-14T12:41:39;8.37;;;5.80;;
6053;SDS011;3055;50.886;14.814;2023-12-14T12:44:06;7.30;;;6.23;;
6053;SDS011;3055;50.886;14.814;2023-12-14T12:46:34;7.73;;;6.47;;
6053;SDS011;3055;50.886;14.814;2023-12-14T12:49:01;7.33;;;5.20;;
6053;SDS011;3055;50.886;14.814;2023-12-14T12:51:29;5.77;;;5.10;;
6053;SDS011;3055;50.886;14.814;2023-12-14T12:53:58;5.53;;;5.03;;
6053;SDS011;3055;50.886;14.814;2023-12-14T12:56:25;7.40;;;5.60;;
6053;SDS011;3055;50.886;14.814;2023-12-14T12:58:53;7.03;;;5.33;;
6053;SDS011;3055;50.886;14.814;2023-12-14T13:01:20;6.80;;;5.00;;
6053;SDS011;3055;50.886;14.814;2023-12-14T13:03:51;4.77;;;4.37;;
6053;SDS011;3055;50.886;14.814;2023-12-14T13:06:19;5.63;;;4.90;;
6053;SDS011;3055;50.886;14.814;2023-12-14T13:08:47;6.23;;;4.57;;
6053;SDS011;3055;50.886;14.814;2023-12-14T13:11:15;6.10;;;5.37;;
6053;SDS011;3055;50.886;14.814;2023-12-14T13:13:42;6.97;;;4.83;;
6053;SDS011;3055;50.886;14.814;2023-12-14T13:16:09;5.17;;;4.00;;
6053;SDS011;3055;50.886;14.814;2023-12-14T13:18:38;6.10;;;4.10;;
6053;SDS011;3055;50.886;14.814;2023-12-14T13:21:05;5.27;;;4.30;;
6053;SDS011;3055;50.886;14.814;2023-12-14T13:23:33;6.17;;;4.63;;
6053;SDS011;3055;50.886;14.814;2023-12-14T13:26:00;7.57;;;5.73;;
6053;SDS011;3055;50.886;14.814;2023-12-14T13:28:28;8.00;;;5.70;;
6053;SDS011;3055;50.886;14.814;2023-12-14T13:30:55;8.60;;;5.70;;
6053;SDS011;3055;50.886;14.814;2023-12-14T13:33:22;5.50;;;4.73;;
6053;SDS011;3055;50.886;14.814;2023-12-14T13:35:49;9.37;;;5.90;;
6053;SDS011;3055;50.886;14.814;2023-12-14T13:38:16;5.97;;;4.80;;
6053;SDS011;3055;50.886;14.814;2023-12-14T13:40:43;7.90;;;5.17;;
6053;SDS011;3055;50.886;14.814;2023-12-14T13:43:10;6.27;;;5.00;;
6053;SDS011;3055;50.886;14.814;2023-12-14T13:45:39;6.17;;;4.90;;
6053;SDS011;3055;50.886;14.814;2023-12-14T13:48:07;5.30;;;4.57;;
6053;SDS011;3055;50.886;14.814;2023-12-14T13:50:34;5.33;;;4.83;;
6053;SDS011;3055;50.886;14.814;2023-12-14T13:53:02;5.23;;;4.50;;
6053;SDS011;3055;50.886;14.814;2023-12-14T13:55:29;5.43;;;4.90;;
6053;SDS011;3055;50.886;14.814;2023-12-14T13:57:56;5.37;;;4.80;;
6053;SDS011;3055;50.886;14.814;2023-12-14T14:00:25;5.90;;;4.43;;
6053;SDS011;3055;50.886;14.814;2023-12-14T14:02:54;5.03;;;4.63;;
6053;SDS011;3055;50.886;14.814;2023-12-14T14:05:21;6.33;;;4.57;;
6053;SDS011;3055;50.886;14.814;2023-12-14T14:07:48;5.30;;;4.80;;
6053;SDS011;3055;50.886;14.814;2023-12-14T14:10:15;5.57;;;5.07;;
6053;SDS011;3055;50.886;14.814;2023-12-14T14:12:42;5.47;;;4.50;;
6053;SDS011;3055;50.886;14.814;2023-12-14T14:15:10;4.83;;;4.33;;
6053;SDS011;3055;50.886;14.814;2023-12-14T14:17:36;5.00;;;4.47;;
6053;SDS011;3055;50.886;14.814;2023-12-14T14:20:06;5.03;;;4.53;;
6053;SDS011;3055;50.886;14.814;2023-12-14T14:22:34;6.20;;;4.73;;
6053;SDS011;3055;50.886;14.814;2023-12-14T14:25:02;6.33;;;4.67;;
6053;SDS011;3055;50.886;14.814;2023-12-14T14:27:31;5.80;;;4.93;;
6053;SDS011;3055;50.886;14.814;2023-12-14T14:29:58;6.90;;;5.57;;
6053;SDS011;3055;50.886;14.814;2023-12-14T14:32:25;6.53;;;5.60;;
6053;SDS011;3055;50.886;14.814;2023-12-14T14:34:52;6.67;;;5.97;;
6053;SDS011;3055;50.886;14.814;2023-12-14T14:37:23;6.00;;;5.40;;
6053;SDS011;3055;50.886;14.814;2023-12-14T14:39:50;5.70;;;5.10;;
6053;SDS011;3055;50.886;14.814;2023-12-14T14:42:17;6.93;;;5.37;;
6053;SDS011;3055;50.886;14.814;2023-12-14T14:44:44;6.23;;;5.10;;
6053;SDS011;3055;50.886;14.814;2023-12-14T14:47:11;7.50;;;5.50;;
6053;SDS011;3055;50.886;14.814;2023-12-14T14:49:39;6.77;;;5.27;;
6053;SDS011;3055;50.886;14.814;2023-12-14T14:52:06;8.27;;;6.30;;
6053;SDS011;3055;50.886;14.814;2023-12-14T14:54:34;8.03;;;6.23;;